Main page
METAR-TAF:

METAR-TAF

Airports :

Djibouti–Ambouli International Airport

Djibouti, Djibouti

latitude: 11-33N, longitude: 043-10E, elevation: 49 m

METAR: missing

Time: 16:56 (13:56 UTC)

Forecast

The report was made 2 hours and 56 minutes ago, at 11:00 UTC
Forecast valid from 27 at 12 UTC to 28 at 12 UTC
Wind 12 kt from the East/Northeast
Visibility 10 km or more
Few clouds at a height of 2300 ft
Becoming
from 27 at 15 UTC to 27 at 21 UTC
Wind 10 kt from the South
Few clouds at a height of 2000 ft
Becoming
from 28 at 00 UTC to 28 at 06 UTC
Wind 4 kt from the East
Scattered clouds at a height of 2300 ft
Scattered clouds at a height of 3000 ft

TAF: HDAM 271100Z 2712/2812 07012KT 9999 FEW023 BECMG 2715/2721 17010KT FEW020 BECMG 2800/2806 08004KT SCT023 SCT030

Weather observations and forecasts of more than 4000 airports (METAR and TAF reports).

The available stations are represented by yellow and red dots on the map.

Hover mouse over dot to see the name of the station.

Then click to see weather observations and forecasts.

To change the map : click on the green buttons with a black cross to zoom in, on the green button with a dash to zoom out, or on the green arrows for adjacent maps.


METAR-TAF: